Time;durP1;ratioP1;P1;durP2;ratioP2;P2;SDS_P1;SDS_P2;PMS_P1;PMS_P2;Temp;Humidity;BMP_temperature;BMP_pressure;BME280_temperature;BME280_humidity;BME280_pressure;Samples;Min_cycle;Max_cycle;Signal;HPM_P1;HPM_P2
2024/03/02 00:00:16;;;;;;;1.38;1.27;;;;;;;19.16;41.48;100092.56;5083444;28;20038;-69
2024/03/02 00:02:45;;;;;;;1.30;1.20;;;;;;;19.16;41.34;100094.38;5096817;28;20031;-68
2024/03/02 00:05:21;;;;;;;1.83;1.48;;;;;;;19.13;41.56;100092.94;5099358;28;20122;-69
2024/03/02 00:07:54;;;;;;;1.42;1.30;;;;;;;19.14;41.37;100091.13;5099067;28;20039;-68
2024/03/02 00:10:25;;;;;;;1.70;1.60;;;;;;;19.13;41.46;100097.41;5103304;27;20399;-69
2024/03/02 00:12:51;;;;;;;1.40;1.30;;;;;;;19.11;41.63;100094.16;5100003;28;20428;-69
2024/03/02 00:15:34;;;;;;;1.35;1.25;;;;;;;19.11;41.51;100089.69;5083241;28;20130;-69
2024/03/02 00:18:01;;;;;;;1.38;1.27;;;;;;;19.09;41.43;100094.34;5098742;28;20043;-69
2024/03/02 00:20:29;;;;;;;1.50;1.40;;;;;;;19.09;41.47;100098.81;5097685;28;20667;-69
2024/03/02 00:23:06;;;;;;;1.95;1.48;;;;;;;19.06;41.42;100094.72;5084471;28;20036;-69
2024/03/02 00:25:56;;;;;;;1.40;1.30;;;;;;;19.04;41.46;100090.66;5100208;27;20796;-69
2024/03/02 00:28:33;;;;;;;1.45;1.35;;;;;;;19.07;41.48;100085.00;5099965;27;20641;-69
2024/03/02 00:31:04;;;;;;;1.45;1.35;;;;;;;19.06;41.58;100093.91;5103357;27;20571;-69
2024/03/02 00:33:33;;;;;;;1.52;1.30;;;;;;;19.04;41.60;100082.75;5102676;27;20039;-67
2024/03/02 00:35:59;;;;;;;1.55;1.40;;;;;;;19.02;41.57;100081.06;5102150;28;20043;-69
2024/03/02 00:38:26;;;;;;;1.63;1.52;;;;;;;18.96;41.63;100066.03;5084768;28;20039;-69
2024/03/02 00:40:51;;;;;;;1.95;1.40;;;;;;;19.01;41.51;100076.00;5099898;28;20092;-69
2024/03/02 00:43:26;;;;;;;1.65;1.55;;;;;;;19.00;41.38;100085.75;5070048;28;20035;-69
2024/03/02 00:45:52;;;;;;;1.40;1.30;;;;;;;18.99;41.50;100078.00;5100284;28;20564;-69
2024/03/02 00:48:17;;;;;;;1.50;1.40;;;;;;;18.99;41.48;100078.81;5084737;28;20048;-68
2024/03/02 00:50:43;;;;;;;1.70;1.60;;;;;;;18.95;41.47;100074.13;5081975;28;20051;-68
2024/03/02 00:53:12;;;;;;;2.13;1.70;;;;;;;18.93;41.55;100078.78;5097471;28;20032;-68
2024/03/02 00:55:38;;;;;;;1.40;1.30;;;;;;;18.92;41.55;100074.53;5100312;28;20039;-68
2024/03/02 00:58:03;;;;;;;1.40;1.30;;;;;;;18.91;41.61;100071.06;5095560;27;20092;-68
2024/03/02 01:00:29;;;;;;;1.63;1.52;;;;;;;18.90;41.77;100072.06;5098258;28;20044;-68
2024/03/02 01:02:54;;;;;;;1.70;1.50;;;;;;;18.90;41.71;100066.81;5083429;28;20023;-68
2024/03/02 01:05:20;;;;;;;1.52;1.42;;;;;;;18.89;41.64;100069.63;5089014;28;20043;-67
2024/03/02 01:07:46;;;;;;;1.83;1.50;;;;;;;18.91;41.73;100073.72;5100730;28;20043;-67
2024/03/02 01:10:11;;;;;;;1.50;1.40;;;;;;;18.88;41.61;100066.19;5101027;28;20074;-68
2024/03/02 01:12:37;;;;;;;2.70;1.70;;;;;;;18.90;41.56;100068.63;5104463;28;20039;-68
2024/03/02 01:15:05;;;;;;;1.77;1.50;;;;;;;18.87;41.58;100058.47;5097289;28;20070;-67
2024/03/02 01:17:31;;;;;;;1.60;1.50;;;;;;;18.87;41.79;100063.75;5100909;28;20055;-68
2024/03/02 01:19:56;;;;;;;1.80;1.70;;;;;;;18.84;41.57;100051.72;5099468;28;20081;-68
2024/03/02 01:22:25;;;;;;;1.65;1.55;;;;;;;18.86;41.63;100047.09;5068912;28;20043;-68
2024/03/02 01:24:51;;;;;;;1.55;1.45;;;;;;;18.87;41.71;100042.63;5101139;28;20981;-68
2024/03/02 01:27:17;;;;;;;1.60;1.50;;;;;;;18.86;41.59;100035.72;5097444;28;20440;-68
2024/03/02 01:29:42;;;;;;;1.80;1.63;;;;;;;18.86;41.69;100041.81;5092878;28;20058;-67
2024/03/02 01:32:08;;;;;;;1.52;1.42;;;;;;;18.76;41.57;100019.41;5108502;28;20047;-68
2024/03/02 01:34:33;;;;;;;1.50;1.40;;;;;;;18.81;41.40;100030.19;5104023;28;20035;-68
2024/03/02 01:36:59;;;;;;;1.58;1.40;;;;;;;18.83;41.59;100030.81;5106692;27;20039;-68
2024/03/02 01:39:24;;;;;;;1.38;1.30;;;;;;;18.82;41.72;100037.09;5091030;28;20084;-68
2024/03/02 01:41:50;;;;;;;1.70;1.60;;;;;;;18.81;41.75;100046.84;5104322;28;20035;-67
2024/03/02 01:44:15;;;;;;;1.83;1.42;;;;;;;18.81;41.80;100048.66;5083652;28;20046;-68
2024/03/02 01:46:41;;;;;;;1.50;1.40;;;;;;;18.81;41.78;100038.91;5102515;28;20039;-68
2024/03/02 01:49:06;;;;;;;1.67;1.58;;;;;;;18.79;41.76;100037.50;5106880;27;20043;-68
2024/03/02 01:51:32;;;;;;;1.52;1.42;;;;;;;18.76;41.69;100027.31;5090506;28;20043;-68
2024/03/02 01:53:57;;;;;;;2.67;1.90;;;;;;;18.75;41.72;100031.78;5104250;28;20092;-68
2024/03/02 01:56:24;;;;;;;2.20;2.00;;;;;;;18.73;41.80;100027.72;5088291;28;20047;-68
2024/03/02 01:58:49;;;;;;;2.17;1.98;;;;;;;18.72;41.81;100037.44;5107113;28;20039;-68
2024/03/02 02:01:16;;;;;;;1.60;1.50;;;;;;;18.76;41.70;100036.06;5106009;28;20092;-68
2024/03/02 02:03:43;;;;;;;1.52;1.42;;;;;;;18.76;41.81;100032.59;5108758;27;20398;-68
2024/03/02 02:06:09;;;;;;;1.90;1.70;;;;;;;18.75;41.68;100029.16;5106693;28;20368;-68
2024/03/02 02:08:37;;;;;;;1.60;1.50;;;;;;;18.71;41.85;100018.16;5111823;27;20103;-68
2024/03/02 02:11:02;;;;;;;1.80;1.70;;;;;;;18.74;41.63;100030.16;5080473;28;20144;-68
2024/03/02 02:13:28;;;;;;;1.45;1.35;;;;;;;18.73;41.79;100022.44;5104330;28;20077;-66
2024/03/02 02:15:54;;;;;;;1.45;1.35;;;;;;;18.74;41.79;100024.06;5083862;28;20147;-68
2024/03/02 02:18:20;;;;;;;1.48;1.38;;;;;;;18.73;41.75;100031.16;5098519;27;20666;-68
2024/03/02 02:20:46;;;;;;;1.60;1.50;;;;;;;18.69;41.81;100009.63;5110537;27;20133;-68
2024/03/02 02:23:13;;;;;;;1.75;1.65;;;;;;;18.68;41.87;100010.66;5108774;27;20073;-67
2024/03/02 02:25:39;;;;;;;1.65;1.55;;;;;;;18.69;41.77;100020.19;5102927;27;20051;-68
2024/03/02 02:28:04;;;;;;;1.95;1.55;;;;;;;18.67;41.91;100008.19;5102016;28;20112;-68
2024/03/02 02:30:32;;;;;;;1.80;1.70;;;;;;;18.66;41.80;100011.81;5097800;27;20039;-68
2024/03/02 02:32:58;;;;;;;1.70;1.60;;;;;;;18.65;41.65;100003.09;5091669;28;20044;-68
2024/03/02 02:35:24;;;;;;;1.70;1.60;;;;;;;18.68;41.91;100015.09;5109783;27;20047;-68
2024/03/02 02:37:54;;;;;;;1.48;1.38;;;;;;;18.68;41.93;100023.03;5101016;28;20052;-68
2024/03/02 02:40:19;;;;;;;1.67;1.52;;;;;;;18.66;41.87;100023.19;5100007;28;20027;-67
2024/03/02 02:42:45;;;;;;;1.70;1.60;;;;;;;18.65;41.85;100021.56;5100158;28;20079;-68
2024/03/02 02:45:14;;;;;;;1.83;1.73;;;;;;;18.61;41.92;100004.47;5103206;27;20039;-68
2024/03/02 02:47:40;;;;;;;2.53;1.63;;;;;;;18.62;41.97;100021.09;5078609;28;20044;-69
2024/03/02 02:50:11;;;;;;;1.80;1.70;;;;;;;18.60;41.78;99999.38;5103329;28;20133;-70
2024/03/02 02:52:40;;;;;;;1.75;1.65;;;;;;;18.61;41.90;100015.00;5087092;28;20399;-70
2024/03/02 02:55:10;;;;;;;1.42;1.33;;;;;;;18.64;41.81;100017.28;5102809;28;20043;-70
2024/03/02 02:57:38;;;;;;;1.70;1.60;;;;;;;18.64;41.81;100017.28;5098264;27;20579;-71
2024/03/02 03:00:14;;;;;;;1.30;1.20;;;;;;;18.63;41.74;100014.84;5094766;27;20044;-70
2024/03/02 03:02:43;;;;;;;1.60;1.50;;;;;;;18.62;41.99;100006.09;5105218;28;20810;-69
2024/03/02 03:05:10;;;;;;;1.70;1.60;;;;;;;18.62;41.86;100016.63;5095146;28;20062;-69
2024/03/02 03:07:36;;;;;;;1.70;1.60;;;;;;;18.61;41.89;100017.66;5102442;28;20624;-69
2024/03/02 03:10:03;;;;;;;1.70;1.58;;;;;;;18.61;42.01;100011.56;5106921;28;20111;-69
2024/03/02 03:12:31;;;;;;;1.80;1.70;;;;;;;18.60;41.97;100016.00;5101879;28;20027;-69
2024/03/02 03:14:57;;;;;;;1.52;1.40;;;;;;;18.60;41.96;100012.56;5103302;28;20098;-69
2024/03/02 03:17:23;;;;;;;1.58;1.48;;;;;;;18.56;41.92;100006.03;5106175;28;20063;-69
2024/03/02 03:19:49;;;;;;;1.60;1.50;;;;;;;18.60;41.84;100015.19;5103939;27;20067;-70
2024/03/02 03:22:15;;;;;;;1.50;1.40;;;;;;;18.60;41.98;100012.56;5083919;28;20786;-69
2024/03/02 03:24:40;;;;;;;1.55;1.33;;;;;;;18.58;41.98;100012.75;5104806;28;20047;-70
2024/03/02 03:27:06;;;;;;;2.00;1.80;;;;;;;18.56;41.84;100009.50;5104462;27;20043;-69
2024/03/02 03:29:32;;;;;;;2.08;1.58;;;;;;;18.57;41.96;100013.75;5105252;28;20391;-69
2024/03/02 03:31:57;;;;;;;2.20;1.70;;;;;;;18.54;41.70;100011.50;5103704;28;20042;-70
2024/03/02 03:34:23;;;;;;;1.60;1.50;;;;;;;18.55;41.92;100009.69;5082019;28;20039;-69
2024/03/02 03:36:48;;;;;;;1.42;1.33;;;;;;;18.54;41.94;100005.44;5077110;28;20089;-70
2024/03/02 03:39:14;;;;;;;1.63;1.52;;;;;;;18.54;41.94;100006.25;5102967;28;20057;-69
2024/03/02 03:41:42;;;;;;;1.70;1.60;;;;;;;18.55;41.97;100009.69;5103707;28;20032;-69
2024/03/02 03:44:08;;;;;;;1.85;1.50;;;;;;;18.55;41.99;100021.06;5087976;28;20039;-70
2024/03/02 03:46:33;;;;;;;1.60;1.50;;;;;;;18.53;41.93;100015.16;5105124;28;20472;-68
2024/03/02 03:48:59;;;;;;;1.23;1.15;;;;;;;18.53;42.04;100012.53;5069516;28;20044;-69
2024/03/02 03:51:24;;;;;;;1.65;1.50;;;;;;;18.53;41.98;100001.16;5084243;28;20050;-69
2024/03/02 03:53:50;;;;;;;1.50;1.40;;;;;;;18.52;41.93;100008.25;5083772;28;20043;-70
2024/03/02 03:56:15;;;;;;;1.60;1.50;;;;;;;18.53;41.95;100003.78;5061962;28;20137;-69
2024/03/02 03:58:41;;;;;;;1.40;1.30;;;;;;;18.51;41.96;99997.91;5104834;28;20444;-69
2024/03/02 04:01:06;;;;;;;1.38;1.27;;;;;;;18.50;41.98;99997.09;5081831;28;20047;-70
2024/03/02 04:03:32;;;;;;;1.50;1.40;;;;;;;18.51;42.04;100003.19;5075664;28;20449;-69
2024/03/02 04:05:57;;;;;;;1.50;1.40;;;;;;;18.52;42.05;100002.97;5096142;28;20399;-69
2024/03/02 04:08:23;;;;;;;1.40;1.30;;;;;;;18.50;42.06;100012.09;5101601;27;20062;-68
2024/03/02 04:10:49;;;;;;;1.42;1.25;;;;;;;18.40;41.89;99996.59;5103476;27;20088;-70
2024/03/02 04:13:14;;;;;;;1.35;1.25;;;;;;;18.49;42.14;100013.91;5083997;28;20036;-69
2024/03/02 04:15:43;;;;;;;1.40;1.30;;;;;;;18.50;42.03;100017.38;5104614;27;20128;-69
2024/03/02 04:18:08;;;;;;;2.42;1.85;;;;;;;18.48;41.96;100022.81;5099806;28;20047;-69
2024/03/02 04:20:34;;;;;;;1.45;1.35;;;;;;;18.48;41.93;100020.16;5096266;28;20334;-69
2024/03/02 04:22:59;;;;;;;1.50;1.40;;;;;;;18.39;41.87;100008.94;5102354;28;20043;-69
2024/03/02 04:25:25;;;;;;;1.02;0.98;;;;;;;18.48;42.05;100017.53;5105083;27;20023;-69
2024/03/02 04:27:50;;;;;;;1.50;1.40;;;;;;;18.46;42.05;100024.00;5103322;28;20047;-70
2024/03/02 04:30:16;;;;;;;1.65;1.38;;;;;;;18.46;41.94;100019.53;5068999;28;20052;-70
2024/03/02 04:32:46;;;;;;;1.38;1.27;;;;;;;18.47;42.10;100025.63;5103519;28;20709;-69
2024/03/02 04:35:12;;;;;;;1.63;1.27;;;;;;;18.45;42.21;100022.38;5084974;28;20112;-69
2024/03/02 04:37:38;;;;;;;1.25;1.20;;;;;;;18.43;42.19;100019.94;5102307;27;20571;-70
2024/03/02 04:40:07;;;;;;;1.50;1.40;;;;;;;18.39;42.09;100023.94;5069482;28;20035;-69
2024/03/02 04:42:33;;;;;;;1.55;1.45;;;;;;;18.44;42.08;100029.47;5105049;27;20032;-69
2024/03/02 04:44:59;;;;;;;1.95;1.60;;;;;;;18.44;42.15;100032.09;5095896;28;20066;-70
2024/03/02 04:47:24;;;;;;;1.63;1.52;;;;;;;18.43;41.95;100027.84;5106321;28;20047;-70
2024/03/02 04:49:50;;;;;;;3.25;1.60;;;;;;;18.44;42.07;100029.47;5085958;28;20040;-69
2024/03/02 04:52:16;;;;;;;1.50;1.40;;;;;;;18.39;42.04;100026.59;5104221;28;20047;-69
2024/03/02 04:57:30;;;;;;;1.98;1.45;;;;;;;18.43;42.09;100041.00;5063692;28;20062;-69
2024/03/02 04:59:56;;;;;;;1.33;1.23;;;;;;;18.42;42.09;100039.38;5103940;28;20052;-69
2024/03/02 05:02:21;;;;;;;1.50;1.40;;;;;;;18.42;42.03;100042.84;5086773;28;20058;-69
2024/03/02 05:04:48;;;;;;;1.05;1.05;;;;;;;18.40;42.14;100039.56;5093313;28;20448;-69
2024/03/02 05:07:14;;;;;;;1.20;1.10;;;;;;;18.34;42.17;100023.72;5098446;28;20028;-69
2024/03/02 05:09:40;;;;;;;1.45;1.33;;;;;;;18.37;42.07;100039.16;5098677;28;20444;-69
2024/03/02 05:14:49;;;;;;;1.40;1.30;;;;;;;18.41;42.09;100059.66;5105694;28;20042;-69
2024/03/02 05:17:15;;;;;;;1.45;1.35;;;;;;;18.41;42.21;100053.56;5108165;27;20039;-69
2024/03/02 05:19:40;;;;;;;1.52;1.42;;;;;;;18.41;42.24;100056.22;5106050;28;20145;-70
2024/03/02 05:22:06;;;;;;;1.27;1.17;;;;;;;18.41;42.08;100061.47;5108242;28;20452;-70
2024/03/02 05:24:31;;;;;;;1.17;1.17;;;;;;;18.40;42.16;100060.66;5091648;27;20035;-69
2024/03/02 05:26:57;;;;;;;1.27;1.17;;;;;;;18.36;42.13;100048.88;5107324;28;20040;-69
2024/03/02 05:29:22;;;;;;;1.45;1.35;;;;;;;18.39;42.22;100066.94;5070312;28;20063;-70
2024/03/02 05:31:48;;;;;;;1.60;1.50;;;;;;;18.39;42.10;100061.66;5083474;28;20036;-69
2024/03/02 05:34:14;;;;;;;1.38;1.27;;;;;;;18.39;42.19;100061.66;5085951;28;20032;-70
2024/03/02 05:36:39;;;;;;;1.38;1.27;;;;;;;18.38;42.22;100070.59;5087295;28;20047;-68
2024/03/02 05:39:08;;;;;;;1.45;1.35;;;;;;;18.37;42.28;100076.03;5087822;28;20480;-69
2024/03/02 05:41:35;;;;;;;1.67;1.37;;;;;;;18.38;42.13;100069.78;5082907;28;20038;-69
2024/03/02 05:44:01;;;;;;;1.38;1.27;;;;;;;18.38;42.02;100075.84;5087062;28;20040;-69
2024/03/02 05:46:27;;;;;;;1.42;1.33;;;;;;;18.38;42.14;100077.69;5086330;28;20519;-69
2024/03/02 05:48:52;;;;;;;1.30;1.20;;;;;;;18.37;42.28;100078.69;5078982;28;20123;-68
2024/03/02 05:51:18;;;;;;;2.22;1.40;;;;;;;18.34;42.26;100071.97;5084296;28;20048;-69
2024/03/02 05:53:43;;;;;;;1.15;1.05;;;;;;;18.35;42.29;100078.88;5085742;28;20040;-68
2024/03/02 05:56:09;;;;;;;1.58;1.48;;;;;;;18.34;42.14;100079.88;5081743;28;20151;-69
2024/03/02 06:01:19;;;;;;;1.38;1.20;;;;;;;18.34;42.45;100095.69;5087628;28;20506;-70
2024/03/02 06:03:44;;;;;;;1.20;1.10;;;;;;;18.35;42.16;100099.16;5089001;28;20060;-69
2024/03/02 06:06:10;;;;;;;1.50;1.40;;;;;;;18.34;42.37;100105.44;5085511;28;20044;-69
2024/03/02 06:08:36;;;;;;;1.30;1.20;;;;;;;18.33;42.24;100104.59;5084391;28;20129;-69
2024/03/02 06:11:01;;;;;;;1.48;1.33;;;;;;;18.34;42.13;100100.16;5088303;28;20050;-69
2024/03/02 06:13:27;;;;;;;1.38;1.27;;;;;;;18.36;42.32;100106.06;5085458;28;20119;-69
2024/03/02 06:15:53;;;;;;;1.30;1.20;;;;;;;18.34;42.30;100116.78;5086673;28;20032;-69
2024/03/02 06:18:20;;;;;;;1.60;1.50;;;;;;;18.36;42.01;100135.03;5086656;28;20032;-69
2024/03/02 06:20:45;;;;;;;1.40;1.30;;;;;;;18.35;42.33;100131.59;5084927;28;20071;-69
2024/03/02 06:23:11;;;;;;;1.50;1.38;;;;;;;18.34;42.16;100129.97;5076209;28;20090;-70
2024/03/02 06:25:36;;;;;;;1.40;1.30;;;;;;;18.34;42.20;100132.59;5082934;28;20412;-69
2024/03/02 06:28:02;;;;;;;1.50;1.40;;;;;;;18.33;42.24;100141.50;5083140;28;20040;-69
2024/03/02 06:30:27;;;;;;;1.10;1.10;;;;;;;18.34;42.46;100139.69;5084418;28;20071;-69
2024/03/02 06:32:53;;;;;;;1.00;1.00;;;;;;;18.34;42.40;100151.03;5080642;28;20047;-69
2024/03/02 06:35:19;;;;;;;1.40;1.30;;;;;;;18.33;42.38;100149.41;5082298;28;20040;-69
2024/03/02 06:37:44;;;;;;;1.25;1.10;;;;;;;18.33;42.31;100153.88;5080738;28;20071;-69
2024/03/02 06:40:10;;;;;;;1.05;1.05;;;;;;;18.33;42.33;100145.97;5082384;28;20044;-70
2024/03/02 06:42:36;;;;;;;1.60;1.23;;;;;;;18.31;42.31;100147.94;5086766;28;20036;-69
2024/03/02 06:45:02;;;;;;;1.30;1.20;;;;;;;18.33;42.31;100156.50;5082977;28;20051;-69
2024/03/02 06:47:28;;;;;;;1.10;1.10;;;;;;;18.33;42.23;100156.50;5084310;28;20123;-70
2024/03/02 06:49:53;;;;;;;1.08;1.08;;;;;;;18.33;42.45;100157.31;5083611;28;20111;-70
2024/03/02 06:52:20;;;;;;;1.70;1.27;;;;;;;18.33;42.33;100164.41;5086834;28;20097;-69
2024/03/02 06:54:46;;;;;;;1.25;1.10;;;;;;;18.30;42.17;100159.50;5083323;28;20040;-69
2024/03/02 06:57:12;;;;;;;1.08;1.08;;;;;;;18.31;42.39;100167.25;5084526;28;20096;-69
2024/03/02 06:59:37;;;;;;;1.40;1.30;;;;;;;18.30;42.24;100162.13;5086360;28;20380;-69
2024/03/02 07:02:03;;;;;;;1.08;1.08;;;;;;;18.33;42.31;100174.97;5084719;28;20479;-69
2024/03/02 07:04:28;;;;;;;1.40;1.30;;;;;;;18.33;42.30;100177.59;5077859;28;20036;-69
2024/03/02 07:06:54;;;;;;;0.95;0.95;;;;;;;18.31;42.26;100180.41;5082692;28;20055;-69
2024/03/02 07:09:22;;;;;;;1.70;1.60;;;;;;;18.26;42.20;100174.84;5077992;28;20036;-69
2024/03/02 07:11:49;;;;;;;1.58;1.48;;;;;;;18.27;42.41;100173.84;5084964;28;20151;-69
2024/03/02 07:14:14;;;;;;;1.30;1.20;;;;;;;18.30;42.35;100180.56;5081338;28;20369;-69
2024/03/02 07:16:40;;;;;;;1.30;1.20;;;;;;;18.21;42.31;100171.97;5082168;28;20039;-69
2024/03/02 07:19:06;;;;;;;1.63;1.52;;;;;;;18.31;42.44;100183.06;5076633;28;20040;-71
2024/03/02 07:21:33;;;;;;;1.05;1.02;;;;;;;18.31;42.43;100188.31;5082072;28;20039;-69
2024/03/02 07:23:59;;;;;;;1.17;1.08;;;;;;;18.35;42.29;100194.03;5086349;28;20036;-69
2024/03/02 07:26:25;;;;;;;1.33;1.23;;;;;;;18.36;42.55;100185.13;5084917;28;20036;-69
2024/03/02 07:28:51;;;;;;;1.30;1.20;;;;;;;18.40;42.24;100189.03;5086144;27;20075;-69
2024/03/02 07:31:17;;;;;;;1.40;1.30;;;;;;;18.47;42.39;100192.53;5101107;27;20634;-69
2024/03/02 07:33:48;;;;;;;1.00;1.00;;;;;;;18.52;42.30;100202.53;5099936;27;20064;-69
2024/03/02 07:36:14;;;;;;;1.05;1.02;;;;;;;18.54;42.32;100204.00;5084818;28;20594;-69
2024/03/02 07:38:40;;;;;;;1.10;1.10;;;;;;;18.58;42.17;100212.34;5099791;28;20043;-69
2024/03/02 07:41:07;;;;;;;1.08;0.98;;;;;;;18.62;42.44;100208.31;5101751;27;20027;-69
2024/03/02 07:43:33;;;;;;;1.85;1.13;;;;;;;18.63;42.54;100205.53;5100124;28;20073;-69
2024/03/02 07:45:59;;;;;;;1.25;1.17;;;;;;;18.70;42.45;100216.97;5099265;27;20032;-68
2024/03/02 07:48:25;;;;;;;1.45;1.35;;;;;;;18.71;42.25;100210.69;5102451;27;20303;-69
2024/03/02 07:50:50;;;;;;;4.90;1.20;;;;;;;18.82;42.30;100219.09;5099674;28;20463;-69
2024/03/02 07:53:16;;;;;;;0.95;0.95;;;;;;;18.87;42.28;100216.75;5099175;27;20054;-69
2024/03/02 07:55:42;;;;;;;1.33;1.20;;;;;;;18.90;42.37;100221.63;5101115;27;20043;-69
2024/03/02 07:58:07;;;;;;;0.80;0.80;;;;;;;18.94;42.03;100217.63;5083294;27;20019;-69
2024/03/02 08:00:33;;;;;;;1.30;1.20;;;;;;;19.01;42.06;100224.56;5094843;28;20082;-69
2024/03/02 08:02:59;;;;;;;0.80;0.80;;;;;;;19.04;41.89;100233.16;5098019;28;20525;-70
2024/03/02 08:05:24;;;;;;;2.28;1.02;;;;;;;19.07;41.85;100223.03;5098314;27;20048;-69
2024/03/02 08:07:52;;;;;;;1.00;0.90;;;;;;;19.07;41.97;100227.50;5098287;28;20044;-69
2024/03/02 08:10:19;;;;;;;1.15;1.05;;;;;;;19.11;41.91;100232.19;5100976;28;20063;-70
2024/03/02 08:12:44;;;;;;;0.68;0.68;;;;;;;19.13;41.72;100234.63;5088138;28;20531;-69
2024/03/02 08:15:10;;;;;;;1.38;1.27;;;;;;;19.17;41.65;100249.09;5082674;28;20046;-70
2024/03/02 08:17:35;;;;;;;1.00;1.00;;;;;;;19.16;42.01;100247.44;5078910;28;20078;-70
2024/03/02 08:20:01;;;;;;;1.13;1.05;;;;;;;19.16;41.88;100250.09;5099771;28;20035;-69
2024/03/02 08:22:27;;;;;;;1.20;1.13;;;;;;;19.18;41.84;100251.53;5101077;27;20100;-69
2024/03/02 08:24:54;;;;;;;0.80;0.80;;;;;;;19.20;41.83;100261.91;5098005;28;20178;-69
2024/03/02 08:27:20;;;;;;;1.13;1.02;;;;;;;19.22;41.73;100259.91;5098325;28;20028;-69
2024/03/02 08:29:45;;;;;;;1.20;1.00;;;;;;;19.23;41.83;100259.72;5103255;28;20079;-70
2024/03/02 08:32:11;;;;;;;1.13;1.02;;;;;;;19.26;41.69;100267.25;5099225;28;20479;-69
2024/03/02 08:34:36;;;;;;;1.00;0.90;;;;;;;19.29;41.60;100266.06;5102366;28;20039;-69
2024/03/02 08:37:02;;;;;;;1.02;1.02;;;;;;;19.30;41.76;100270.34;5096992;28;20043;-69
2024/03/02 08:39:28;;;;;;;1.15;1.05;;;;;;;19.26;41.70;100263.81;5089065;28;20050;-69
2024/03/02 08:41:54;;;;;;;0.98;0.90;;;;;;;19.31;41.67;100269.31;5097492;28;20027;-69
2024/03/02 08:44:20;;;;;;;1.25;1.15;;;;;;;19.32;41.54;100266.50;5102906;28;20840;-70
2024/03/02 08:46:46;;;;;;;0.68;0.68;;;;;;;19.32;41.57;100266.50;5096136;28;20054;-69
2024/03/02 08:49:12;;;;;;;0.93;0.93;;;;;;;19.36;41.53;100276.66;5096979;28;20113;-70
2024/03/02 08:51:38;;;;;;;1.13;1.02;;;;;;;19.31;41.40;100264.84;5092372;28;20499;-69
2024/03/02 08:54:04;;;;;;;1.15;1.10;;;;;;;19.33;41.52;100275.22;5078560;28;20036;-69
2024/03/02 08:56:30;;;;;;;1.40;1.10;;;;;;;19.29;41.54;100261.59;5098622;28;20084;-71
2024/03/02 08:58:56;;;;;;;1.08;1.00;;;;;;;19.38;41.75;100282.56;5080036;28;20049;-68
2024/03/02 09:01:22;;;;;;;1.25;1.15;;;;;;;19.37;41.59;100283.56;5094474;28;20036;-69
2024/03/02 09:03:49;;;;;;;1.35;1.00;;;;;;;19.37;41.60;100284.41;5080148;28;20055;-69
2024/03/02 09:06:16;;;;;;;2.08;1.00;;;;;;;19.37;41.39;100288.84;5096259;28;20050;-68
2024/03/02 09:08:43;;;;;;;0.95;0.95;;;;;;;19.33;41.26;100285.78;5096787;28;20047;-68
2024/03/02 09:11:10;;;;;;;1.10;1.00;;;;;;;19.37;41.65;100291.50;5100052;28;20444;-68
2024/03/02 09:13:36;;;;;;;1.00;1.00;;;;;;;19.36;41.34;100301.25;5096320;28;20043;-69
2024/03/02 09:16:02;;;;;;;1.48;1.10;;;;;;;19.36;41.49;100288.03;5092998;28;20043;-69
2024/03/02 09:18:29;;;;;;;0.85;0.85;;;;;;;19.37;41.66;100291.50;5103000;28;20087;-69
2024/03/02 09:20:55;;;;;;;1.00;1.00;;;;;;;19.38;41.57;100293.13;5099910;28;20043;-69
2024/03/02 09:23:21;;;;;;;0.90;0.90;;;;;;;19.35;41.69;100285.59;5076828;28;20470;-69
2024/03/02 09:25:46;;;;;;;0.93;0.90;;;;;;;19.36;41.56;100290.69;5093773;28;20491;-69
2024/03/02 09:28:12;;;;;;;0.98;0.95;;;;;;;19.39;41.61;100287.69;5098345;28;20035;-70
2024/03/02 09:30:37;;;;;;;1.20;1.10;;;;;;;19.38;41.69;100282.56;5099407;28;20055;-69
2024/03/02 09:33:03;;;;;;;0.77;0.77;;;;;;;19.39;41.49;100285.06;5097275;28;20036;-69
2024/03/02 09:35:29;;;;;;;0.75;0.75;;;;;;;19.41;41.56;100279.56;5082648;28;20126;-69
2024/03/02 09:37:55;;;;;;;1.00;0.75;;;;;;;19.42;41.54;100275.94;5080598;28;20120;-69
2024/03/02 09:40:24;;;;;;;0.88;0.85;;;;;;;19.42;41.55;100281.22;5102391;28;20445;-69
2024/03/02 09:42:52;;;;;;;0.70;0.70;;;;;;;19.44;41.19;100290.56;5098096;28;20594;-69
2024/03/02 09:45:26;;;;;;;1.20;1.00;;;;;;;19.44;41.52;100282.66;5097379;28;20050;-69
2024/03/02 09:47:52;;;;;;;0.77;0.65;;;;;;;19.43;41.52;100278.38;5099118;28;20047;-69
2024/03/02 09:50:17;;;;;;;1.10;1.00;;;;;;;19.42;41.44;100270.66;5102927;28;20499;-70
2024/03/02 09:52:44;;;;;;;1.17;0.93;;;;;;;19.46;41.52;100279.81;5099327;28;20055;-70
2024/03/02 09:55:11;;;;;;;0.70;0.70;;;;;;;19.43;41.70;100288.94;5100472;28;20035;-69
2024/03/02 09:57:37;;;;;;;0.95;0.95;;;;;;;19.45;41.53;100292.19;5100358;27;20051;-69
2024/03/02 10:00:03;;;;;;;0.82;0.82;;;;;;;19.46;41.53;100285.91;5103792;28;20043;-69
2024/03/02 10:02:30;;;;;;;1.38;1.00;;;;;;;19.47;41.53;100284.91;5103696;28;20040;-70
2024/03/02 10:04:56;;;;;;;0.70;0.70;;;;;;;19.43;41.66;100283.66;5103478;27;20701;-69
2024/03/02 10:07:21;;;;;;;1.67;0.98;;;;;;;19.47;41.54;100292.81;5083997;28;20034;-69
2024/03/02 10:09:48;;;;;;;2.00;0.95;;;;;;;19.46;41.49;100293.00;5105756;27;20043;-69
2024/03/02 10:12:16;;;;;;;0.95;0.85;;;;;;;19.45;41.47;100286.09;5085457;28;20463;-69
2024/03/02 10:14:45;;;;;;;1.38;0.85;;;;;;;19.44;41.57;100290.56;5099720;27;20096;-70
2024/03/02 10:17:12;;;;;;;2.40;1.20;;;;;;;19.45;41.54;100294.84;5100341;28;20107;-70
2024/03/02 10:19:39;;;;;;;1.20;0.90;;;;;;;19.41;41.64;100290.94;5101199;28;20032;-69
2024/03/02 10:22:06;;;;;;;1.48;1.05;;;;;;;19.44;41.61;100295.03;5101368;28;20036;-69
2024/03/02 10:24:36;;;;;;;0.70;0.68;;;;;;;19.43;41.61;100291.56;5083547;28;20047;-68
2024/03/02 10:27:02;;;;;;;0.75;0.75;;;;;;;19.40;41.31;100283.22;5098487;28;20112;-69
2024/03/02 10:29:30;;;;;;;1.27;0.70;;;;;;;19.39;41.47;100284.19;5083067;28;20484;-69
2024/03/02 10:31:56;;;;;;;1.35;0.95;;;;;;;19.40;41.52;100281.41;5097815;28;20047;-68
2024/03/02 10:34:21;;;;;;;0.88;0.82;;;;;;;19.39;41.62;100277.13;5084552;28;20082;-68
2024/03/02 10:36:47;;;;;;;0.82;0.82;;;;;;;19.36;41.63;100280.13;5098747;28;20494;-68
2024/03/02 10:39:14;;;;;;;1.20;1.10;;;;;;;19.41;41.50;100280.41;5103404;28;20042;-68
2024/03/02 10:41:40;;;;;;;0.90;0.90;;;;;;;19.39;41.56;100276.28;5101902;28;20444;-69
2024/03/02 10:44:07;;;;;;;0.95;0.80;;;;;;;19.40;41.57;100278.75;5096398;28;20040;-69
2024/03/02 10:46:34;;;;;;;1.08;0.75;;;;;;;19.37;41.59;100273.84;5082721;28;20416;-69
2024/03/02 10:49:02;;;;;;;1.10;1.00;;;;;;;19.39;41.54;100278.91;5102416;28;20404;-69
2024/03/02 10:51:31;;;;;;;0.68;0.68;;;;;;;19.39;41.55;100282.41;5099665;28;20702;-68
2024/03/02 10:54:03;;;;;;;0.90;0.90;;;;;;;19.39;41.68;100277.13;5101575;28;20076;-68
2024/03/02 10:56:33;;;;;;;0.93;0.75;;;;;;;19.38;41.59;100274.66;5084618;28;20023;-69
2024/03/02 10:59:03;;;;;;;;;;;;;;;19.37;41.60;100280.94;5101126;28;20115;-68
2024/03/02 11:01:31;;;;;;;1.20;1.10;;;;;;;19.35;41.58;100278.50;5100060;27;19968;-69
2024/03/02 11:03:58;;;;;;;1.63;1.02;;;;;;;19.36;41.82;100271.38;5100347;28;20093;-68
2024/03/02 11:06:27;;;;;;;1.10;1.00;;;;;;;19.36;41.68;100274.03;5101535;27;20039;-69
2024/03/02 11:08:58;;;;;;;0.80;0.80;;;;;;;19.33;41.64;100272.59;5099384;27;20092;-69
2024/03/02 11:11:29;;;;;;;1.40;0.90;;;;;;;19.35;41.73;100280.31;5101960;28;20574;-68
2024/03/02 11:13:59;;;;;;;0.82;0.80;;;;;;;19.32;41.74;100271.78;5099474;28;20026;-68
2024/03/02 11:16:36;;;;;;;0.70;0.70;;;;;;;19.37;41.71;100278.28;5100423;28;20043;-69
2024/03/02 11:19:13;;;;;;;1.25;1.15;;;;;;;19.36;41.51;100285.41;5099734;27;20051;-69
2024/03/02 11:21:40;;;;;;;0.70;0.70;;;;;;;19.35;41.44;100280.31;5100357;27;21221;-69
2024/03/02 11:24:23;;;;;;;0.75;0.75;;;;;;;19.36;41.65;100284.59;5101648;28;20116;-69
2024/03/02 11:26:53;;;;;;;1.08;0.95;;;;;;;19.35;41.71;100275.03;5077926;28;20043;-69
2024/03/02 11:29:40;;;;;;;0.70;0.70;;;;;;;19.35;41.60;100277.66;5101246;28;20067;-69
2024/03/02 11:32:13;;;;;;;0.80;0.80;;;;;;;19.34;41.71;100274.22;5102033;27;20050;-69